sensor_id;sensor_type;location;lat;lon;timestamp;P1;durP1;ratioP1;P2;durP2;ratioP2
49193;SDS011;35029;50.804;12.866;2024-01-11T00:00:30;40.13;;;21.43;;
49193;SDS011;35029;50.804;12.866;2024-01-11T00:02:55;41.17;;;20.50;;
49193;SDS011;35029;50.804;12.866;2024-01-11T00:05:21;38.43;;;20.47;;
49193;SDS011;35029;50.804;12.866;2024-01-11T00:07:48;45.90;;;23.03;;
49193;SDS011;35029;50.804;12.866;2024-01-11T00:10:13;40.10;;;23.10;;
49193;SDS011;35029;50.804;12.866;2024-01-11T00:12:39;41.40;;;23.60;;
49193;SDS011;35029;50.804;12.866;2024-01-11T00:15:06;45.67;;;23.90;;
49193;SDS011;35029;50.804;12.866;2024-01-11T00:17:32;44.93;;;23.63;;
49193;SDS011;35029;50.804;12.866;2024-01-11T00:19:57;46.23;;;24.57;;
49193;SDS011;35029;50.804;12.866;2024-01-11T00:22:23;44.10;;;23.40;;
49193;SDS011;35029;50.804;12.866;2024-01-11T00:24:48;46.07;;;23.97;;
49193;SDS011;35029;50.804;12.866;2024-01-11T00:27:14;48.87;;;25.00;;
49193;SDS011;35029;50.804;12.866;2024-01-11T00:29:40;48.50;;;25.23;;
49193;SDS011;35029;50.804;12.866;2024-01-11T00:32:05;45.67;;;22.00;;
49193;SDS011;35029;50.804;12.866;2024-01-11T00:34:31;46.50;;;23.60;;
49193;SDS011;35029;50.804;12.866;2024-01-11T00:36:57;46.87;;;23.20;;
49193;SDS011;35029;50.804;12.866;2024-01-11T00:39:22;41.03;;;22.13;;
49193;SDS011;35029;50.804;12.866;2024-01-11T00:41:48;40.67;;;23.80;;
49193;SDS011;35029;50.804;12.866;2024-01-11T00:44:13;50.33;;;25.80;;
49193;SDS011;35029;50.804;12.866;2024-01-11T00:46:39;46.50;;;24.43;;
49193;SDS011;35029;50.804;12.866;2024-01-11T00:49:06;43.40;;;22.37;;
49193;SDS011;35029;50.804;12.866;2024-01-11T00:51:32;41.63;;;23.30;;
49193;SDS011;35029;50.804;12.866;2024-01-11T00:53:58;47.37;;;24.47;;
49193;SDS011;35029;50.804;12.866;2024-01-11T00:56:23;44.30;;;23.30;;
49193;SDS011;35029;50.804;12.866;2024-01-11T00:58:49;41.73;;;22.30;;
49193;SDS011;35029;50.804;12.866;2024-01-11T01:01:14;39.47;;;21.80;;
49193;SDS011;35029;50.804;12.866;2024-01-11T01:03:40;39.07;;;22.37;;
49193;SDS011;35029;50.804;12.866;2024-01-11T01:06:06;38.27;;;21.20;;
49193;SDS011;35029;50.804;12.866;2024-01-11T01:08:32;39.17;;;21.67;;
49193;SDS011;35029;50.804;12.866;2024-01-11T01:10:58;41.77;;;21.83;;
49193;SDS011;35029;50.804;12.866;2024-01-11T01:13:23;41.93;;;23.00;;
49193;SDS011;35029;50.804;12.866;2024-01-11T01:15:49;40.10;;;22.23;;
49193;SDS011;35029;50.804;12.866;2024-01-11T01:18:14;45.93;;;22.70;;
49193;SDS011;35029;50.804;12.866;2024-01-11T01:20:40;43.97;;;24.20;;
49193;SDS011;35029;50.804;12.866;2024-01-11T01:23:06;49.37;;;25.00;;
49193;SDS011;35029;50.804;12.866;2024-01-11T01:25:31;40.13;;;21.77;;
49193;SDS011;35029;50.804;12.866;2024-01-11T01:27:59;44.83;;;23.20;;
49193;SDS011;35029;50.804;12.866;2024-01-11T01:30:26;39.80;;;20.93;;
49193;SDS011;35029;50.804;12.866;2024-01-11T01:32:52;37.17;;;20.53;;
49193;SDS011;35029;50.804;12.866;2024-01-11T01:35:18;37.60;;;20.97;;
49193;SDS011;35029;50.804;12.866;2024-01-11T01:37:44;37.77;;;20.00;;
49193;SDS011;35029;50.804;12.866;2024-01-11T01:40:09;40.00;;;20.70;;
49193;SDS011;35029;50.804;12.866;2024-01-11T01:42:36;41.67;;;22.47;;
49193;SDS011;35029;50.804;12.866;2024-01-11T01:45:05;35.40;;;19.83;;
49193;SDS011;35029;50.804;12.866;2024-01-11T01:47:31;37.23;;;20.53;;
49193;SDS011;35029;50.804;12.866;2024-01-11T01:49:57;38.10;;;19.73;;
49193;SDS011;35029;50.804;12.866;2024-01-11T01:52:23;37.30;;;19.40;;
49193;SDS011;35029;50.804;12.866;2024-01-11T01:54:49;37.43;;;17.73;;
49193;SDS011;35029;50.804;12.866;2024-01-11T01:57:15;43.33;;;20.97;;
49193;SDS011;35029;50.804;12.866;2024-01-11T01:59:41;37.73;;;21.10;;
49193;SDS011;35029;50.804;12.866;2024-01-11T02:02:08;38.93;;;21.47;;
49193;SDS011;35029;50.804;12.866;2024-01-11T02:04:35;40.47;;;23.03;;
49193;SDS011;35029;50.804;12.866;2024-01-11T02:07:01;36.63;;;21.37;;
49193;SDS011;35029;50.804;12.866;2024-01-11T02:09:27;43.63;;;23.37;;
49193;SDS011;35029;50.804;12.866;2024-01-11T02:11:53;49.77;;;22.80;;
49193;SDS011;35029;50.804;12.866;2024-01-11T02:14:20;47.47;;;25.23;;
49193;SDS011;35029;50.804;12.866;2024-01-11T02:16:45;51.73;;;26.90;;
49193;SDS011;35029;50.804;12.866;2024-01-11T02:19:14;53.00;;;28.37;;
49193;SDS011;35029;50.804;12.866;2024-01-11T02:21:46;54.33;;;28.40;;
49193;SDS011;35029;50.804;12.866;2024-01-11T02:24:13;56.07;;;29.90;;
49193;SDS011;35029;50.804;12.866;2024-01-11T02:26:57;56.93;;;30.23;;
49193;SDS011;35029;50.804;12.866;2024-01-11T02:29:25;56.30;;;28.03;;
49193;SDS011;35029;50.804;12.866;2024-01-11T02:31:51;48.07;;;26.17;;
49193;SDS011;35029;50.804;12.866;2024-01-11T02:34:17;47.30;;;25.10;;
49193;SDS011;35029;50.804;12.866;2024-01-11T02:36:43;47.57;;;24.60;;
49193;SDS011;35029;50.804;12.866;2024-01-11T02:39:09;43.90;;;24.93;;
49193;SDS011;35029;50.804;12.866;2024-01-11T02:41:36;42.80;;;23.90;;
49193;SDS011;35029;50.804;12.866;2024-01-11T02:44:02;46.60;;;25.47;;
49193;SDS011;35029;50.804;12.866;2024-01-11T02:46:28;47.80;;;24.20;;
49193;SDS011;35029;50.804;12.866;2024-01-11T02:48:53;44.97;;;23.37;;
49193;SDS011;35029;50.804;12.866;2024-01-11T02:51:19;46.20;;;24.53;;
49193;SDS011;35029;50.804;12.866;2024-01-11T02:53:45;47.03;;;25.13;;
49193;SDS011;35029;50.804;12.866;2024-01-11T02:56:10;54.03;;;27.37;;
49193;SDS011;35029;50.804;12.866;2024-01-11T02:58:36;54.20;;;27.27;;
49193;SDS011;35029;50.804;12.866;2024-01-11T03:01:01;57.70;;;28.20;;
49193;SDS011;35029;50.804;12.866;2024-01-11T03:03:27;53.57;;;28.80;;
49193;SDS011;35029;50.804;12.866;2024-01-11T03:05:52;53.13;;;28.40;;
49193;SDS011;35029;50.804;12.866;2024-01-11T03:08:18;56.97;;;30.90;;
49193;SDS011;35029;50.804;12.866;2024-01-11T03:10:43;59.33;;;29.57;;
49193;SDS011;35029;50.804;12.866;2024-01-11T03:13:09;61.90;;;31.27;;
49193;SDS011;35029;50.804;12.866;2024-01-11T03:15:34;58.67;;;31.20;;
49193;SDS011;35029;50.804;12.866;2024-01-11T03:18:00;62.50;;;32.60;;
49193;SDS011;35029;50.804;12.866;2024-01-11T03:20:26;65.07;;;31.57;;
49193;SDS011;35029;50.804;12.866;2024-01-11T03:22:51;60.00;;;31.57;;
49193;SDS011;35029;50.804;12.866;2024-01-11T03:25:17;65.13;;;31.83;;
49193;SDS011;35029;50.804;12.866;2024-01-11T03:27:43;67.20;;;32.60;;
49193;SDS011;35029;50.804;12.866;2024-01-11T03:30:09;63.33;;;32.87;;
49193;SDS011;35029;50.804;12.866;2024-01-11T03:32:35;62.93;;;33.37;;
49193;SDS011;35029;50.804;12.866;2024-01-11T03:35:00;61.77;;;34.07;;
49193;SDS011;35029;50.804;12.866;2024-01-11T03:37:26;66.40;;;34.13;;
49193;SDS011;35029;50.804;12.866;2024-01-11T03:39:51;66.63;;;34.63;;
49193;SDS011;35029;50.804;12.866;2024-01-11T03:42:17;64.97;;;34.10;;
49193;SDS011;35029;50.804;12.866;2024-01-11T03:44:43;67.20;;;36.13;;
49193;SDS011;35029;50.804;12.866;2024-01-11T03:47:08;73.77;;;36.23;;
49193;SDS011;35029;50.804;12.866;2024-01-11T03:49:34;66.57;;;34.97;;
49193;SDS011;35029;50.804;12.866;2024-01-11T03:51:59;71.93;;;34.50;;
49193;SDS011;35029;50.804;12.866;2024-01-11T03:54:26;68.73;;;34.27;;
49193;SDS011;35029;50.804;12.866;2024-01-11T03:56:51;70.43;;;33.07;;
49193;SDS011;35029;50.804;12.866;2024-01-11T03:59:17;70.07;;;34.57;;
49193;SDS011;35029;50.804;12.866;2024-01-11T04:01:42;67.97;;;33.73;;
49193;SDS011;35029;50.804;12.866;2024-01-11T04:04:08;71.23;;;34.73;;
49193;SDS011;35029;50.804;12.866;2024-01-11T04:06:34;73.17;;;35.73;;
49193;SDS011;35029;50.804;12.866;2024-01-11T04:08:59;70.53;;;35.30;;
49193;SDS011;35029;50.804;12.866;2024-01-11T04:11:28;73.63;;;34.80;;
49193;SDS011;35029;50.804;12.866;2024-01-11T04:13:54;78.23;;;38.20;;
49193;SDS011;35029;50.804;12.866;2024-01-11T04:16:20;95.63;;;46.20;;
49193;SDS011;35029;50.804;12.866;2024-01-11T04:18:45;78.40;;;41.57;;
49193;SDS011;35029;50.804;12.866;2024-01-11T04:21:21;79.27;;;39.03;;
49193;SDS011;35029;50.804;12.866;2024-01-11T04:23:47;70.10;;;35.67;;
49193;SDS011;35029;50.804;12.866;2024-01-11T04:26:13;67.73;;;34.90;;
49193;SDS011;35029;50.804;12.866;2024-01-11T04:28:38;65.93;;;34.83;;
49193;SDS011;35029;50.804;12.866;2024-01-11T04:31:05;75.37;;;34.77;;
49193;SDS011;35029;50.804;12.866;2024-01-11T04:33:30;72.20;;;37.90;;
49193;SDS011;35029;50.804;12.866;2024-01-11T04:35:56;72.97;;;37.57;;
49193;SDS011;35029;50.804;12.866;2024-01-11T04:38:21;79.80;;;39.33;;
49193;SDS011;35029;50.804;12.866;2024-01-11T04:40:47;69.27;;;36.20;;
49193;SDS011;35029;50.804;12.866;2024-01-11T04:43:12;66.13;;;36.67;;
49193;SDS011;35029;50.804;12.866;2024-01-11T04:45:38;72.07;;;35.13;;
49193;SDS011;35029;50.804;12.866;2024-01-11T04:48:03;77.13;;;40.43;;
49193;SDS011;35029;50.804;12.866;2024-01-11T04:50:29;74.87;;;39.93;;
49193;SDS011;35029;50.804;12.866;2024-01-11T04:52:55;83.80;;;39.57;;
49193;SDS011;35029;50.804;12.866;2024-01-11T04:55:21;74.37;;;39.00;;
49193;SDS011;35029;50.804;12.866;2024-01-11T04:57:47;89.73;;;44.80;;
49193;SDS011;35029;50.804;12.866;2024-01-11T05:00:12;86.87;;;41.73;;
49193;SDS011;35029;50.804;12.866;2024-01-11T05:02:38;76.53;;;39.07;;
49193;SDS011;35029;50.804;12.866;2024-01-11T05:05:04;75.67;;;39.53;;
49193;SDS011;35029;50.804;12.866;2024-01-11T05:07:29;94.43;;;44.37;;
49193;SDS011;35029;50.804;12.866;2024-01-11T05:09:55;77.33;;;41.17;;
49193;SDS011;35029;50.804;12.866;2024-01-11T05:12:21;83.93;;;42.47;;
49193;SDS011;35029;50.804;12.866;2024-01-11T05:14:46;88.03;;;43.43;;
49193;SDS011;35029;50.804;12.866;2024-01-11T05:17:12;87.67;;;44.80;;
49193;SDS011;35029;50.804;12.866;2024-01-11T05:19:38;93.10;;;46.67;;
49193;SDS011;35029;50.804;12.866;2024-01-11T05:22:03;75.70;;;41.07;;
49193;SDS011;35029;50.804;12.866;2024-01-11T05:24:29;90.03;;;45.87;;
49193;SDS011;35029;50.804;12.866;2024-01-11T05:26:54;92.40;;;46.30;;
49193;SDS011;35029;50.804;12.866;2024-01-11T05:29:20;86.83;;;44.43;;
49193;SDS011;35029;50.804;12.866;2024-01-11T05:31:46;86.97;;;45.40;;
49193;SDS011;35029;50.804;12.866;2024-01-11T05:34:11;80.23;;;42.93;;
49193;SDS011;35029;50.804;12.866;2024-01-11T05:36:38;92.07;;;46.97;;
49193;SDS011;35029;50.804;12.866;2024-01-11T05:39:03;93.87;;;47.17;;
49193;SDS011;35029;50.804;12.866;2024-01-11T05:41:29;86.97;;;46.53;;
49193;SDS011;35029;50.804;12.866;2024-01-11T05:43:55;90.60;;;46.67;;
49193;SDS011;35029;50.804;12.866;2024-01-11T05:46:20;91.97;;;48.60;;
49193;SDS011;35029;50.804;12.866;2024-01-11T05:48:46;100.00;;;50.00;;
49193;SDS011;35029;50.804;12.866;2024-01-11T05:51:11;84.27;;;44.50;;
49193;SDS011;35029;50.804;12.866;2024-01-11T05:53:37;92.07;;;44.70;;
49193;SDS011;35029;50.804;12.866;2024-01-11T05:56:07;87.40;;;45.63;;
49193;SDS011;35029;50.804;12.866;2024-01-11T05:58:34;91.10;;;49.00;;
49193;SDS011;35029;50.804;12.866;2024-01-11T06:00:59;96.00;;;49.40;;
49193;SDS011;35029;50.804;12.866;2024-01-11T06:03:25;100.33;;;51.30;;
49193;SDS011;35029;50.804;12.866;2024-01-11T06:05:50;92.30;;;49.30;;
49193;SDS011;35029;50.804;12.866;2024-01-11T06:08:16;96.63;;;50.27;;
49193;SDS011;35029;50.804;12.866;2024-01-11T06:10:44;96.97;;;49.73;;
49193;SDS011;35029;50.804;12.866;2024-01-11T06:13:10;100.80;;;49.13;;
49193;SDS011;35029;50.804;12.866;2024-01-11T06:15:36;92.40;;;45.77;;
49193;SDS011;35029;50.804;12.866;2024-01-11T06:18:01;100.83;;;50.03;;
49193;SDS011;35029;50.804;12.866;2024-01-11T06:20:27;99.03;;;50.50;;
49193;SDS011;35029;50.804;12.866;2024-01-11T06:22:53;101.07;;;51.43;;
49193;SDS011;35029;50.804;12.866;2024-01-11T06:25:19;91.47;;;46.63;;
49193;SDS011;35029;50.804;12.866;2024-01-11T06:27:45;102.83;;;50.93;;
49193;SDS011;35029;50.804;12.866;2024-01-11T06:30:12;94.20;;;49.23;;
49193;SDS011;35029;50.804;12.866;2024-01-11T06:32:39;95.07;;;50.60;;
49193;SDS011;35029;50.804;12.866;2024-01-11T06:35:04;104.97;;;48.70;;
49193;SDS011;35029;50.804;12.866;2024-01-11T06:37:31;95.77;;;49.67;;
49193;SDS011;35029;50.804;12.866;2024-01-11T06:39:56;89.30;;;46.20;;
49193;SDS011;35029;50.804;12.866;2024-01-11T06:42:22;98.80;;;48.57;;
49193;SDS011;35029;50.804;12.866;2024-01-11T06:44:47;97.53;;;49.43;;
49193;SDS011;35029;50.804;12.866;2024-01-11T06:47:13;100.97;;;49.70;;
49193;SDS011;35029;50.804;12.866;2024-01-11T06:49:40;94.23;;;48.73;;
49193;SDS011;35029;50.804;12.866;2024-01-11T06:52:06;95.60;;;48.00;;
49193;SDS011;35029;50.804;12.866;2024-01-11T06:54:32;94.47;;;47.77;;
49193;SDS011;35029;50.804;12.866;2024-01-11T06:56:58;87.43;;;46.70;;
49193;SDS011;35029;50.804;12.866;2024-01-11T06:59:23;98.57;;;47.13;;
49193;SDS011;35029;50.804;12.866;2024-01-11T07:01:49;89.47;;;45.20;;
49193;SDS011;35029;50.804;12.866;2024-01-11T07:04:15;92.50;;;43.83;;
49193;SDS011;35029;50.804;12.866;2024-01-11T07:06:41;93.33;;;45.80;;
49193;SDS011;35029;50.804;12.866;2024-01-11T07:09:06;89.07;;;47.87;;
49193;SDS011;35029;50.804;12.866;2024-01-11T07:11:32;92.43;;;45.50;;
49193;SDS011;35029;50.804;12.866;2024-01-11T07:13:58;93.90;;;47.87;;
49193;SDS011;35029;50.804;12.866;2024-01-11T07:16:24;84.93;;;42.10;;
49193;SDS011;35029;50.804;12.866;2024-01-11T07:18:49;90.77;;;42.83;;
49193;SDS011;35029;50.804;12.866;2024-01-11T07:21:22;80.97;;;43.63;;
49193;SDS011;35029;50.804;12.866;2024-01-11T07:23:55;91.43;;;47.37;;
49193;SDS011;35029;50.804;12.866;2024-01-11T07:26:22;85.97;;;44.20;;
49193;SDS011;35029;50.804;12.866;2024-01-11T07:28:49;88.40;;;47.17;;
49193;SDS011;35029;50.804;12.866;2024-01-11T07:31:14;84.60;;;44.80;;
49193;SDS011;35029;50.804;12.866;2024-01-11T07:33:40;85.30;;;45.47;;
49193;SDS011;35029;50.804;12.866;2024-01-11T07:36:06;95.27;;;49.10;;
49193;SDS011;35029;50.804;12.866;2024-01-11T07:38:32;97.17;;;47.27;;
49193;SDS011;35029;50.804;12.866;2024-01-11T07:40:58;98.63;;;50.47;;
49193;SDS011;35029;50.804;12.866;2024-01-11T07:43:24;100.57;;;51.10;;
49193;SDS011;35029;50.804;12.866;2024-01-11T07:45:51;103.13;;;51.27;;
49193;SDS011;35029;50.804;12.866;2024-01-11T07:48:17;104.83;;;54.00;;
49193;SDS011;35029;50.804;12.866;2024-01-11T07:50:42;113.10;;;54.80;;
49193;SDS011;35029;50.804;12.866;2024-01-11T07:53:08;101.60;;;51.43;;
49193;SDS011;35029;50.804;12.866;2024-01-11T07:55:33;98.97;;;50.17;;
49193;SDS011;35029;50.804;12.866;2024-01-11T07:57:59;107.77;;;53.90;;
49193;SDS011;35029;50.804;12.866;2024-01-11T08:00:25;95.37;;;50.47;;
49193;SDS011;35029;50.804;12.866;2024-01-11T08:02:50;108.07;;;54.53;;
49193;SDS011;35029;50.804;12.866;2024-01-11T08:05:17;102.40;;;53.30;;
49193;SDS011;35029;50.804;12.866;2024-01-11T08:07:43;97.30;;;50.00;;
49193;SDS011;35029;50.804;12.866;2024-01-11T08:10:08;95.70;;;48.47;;
49193;SDS011;35029;50.804;12.866;2024-01-11T08:12:34;96.70;;;49.60;;
49193;SDS011;35029;50.804;12.866;2024-01-11T08:15:00;99.43;;;50.20;;
49193;SDS011;35029;50.804;12.866;2024-01-11T08:17:27;92.63;;;45.57;;
49193;SDS011;35029;50.804;12.866;2024-01-11T08:19:54;90.27;;;43.90;;
49193;SDS011;35029;50.804;12.866;2024-01-11T08:22:21;82.77;;;43.37;;
49193;SDS011;35029;50.804;12.866;2024-01-11T08:24:47;76.00;;;42.83;;
49193;SDS011;35029;50.804;12.866;2024-01-11T08:27:13;92.70;;;43.47;;
49193;SDS011;35029;50.804;12.866;2024-01-11T08:29:38;87.27;;;43.53;;
49193;SDS011;35029;50.804;12.866;2024-01-11T08:32:06;80.23;;;43.17;;
49193;SDS011;35029;50.804;12.866;2024-01-11T08:34:32;90.10;;;46.40;;
49193;SDS011;35029;50.804;12.866;2024-01-11T08:36:58;91.73;;;47.30;;
49193;SDS011;35029;50.804;12.866;2024-01-11T08:39:24;89.47;;;46.83;;
49193;SDS011;35029;50.804;12.866;2024-01-11T08:41:50;87.87;;;47.73;;
49193;SDS011;35029;50.804;12.866;2024-01-11T08:44:17;92.13;;;48.30;;
49193;SDS011;35029;50.804;12.866;2024-01-11T08:46:43;91.33;;;48.80;;
49193;SDS011;35029;50.804;12.866;2024-01-11T08:49:09;92.27;;;43.17;;
49193;SDS011;35029;50.804;12.866;2024-01-11T08:51:35;78.17;;;41.77;;
49193;SDS011;35029;50.804;12.866;2024-01-11T08:54:01;79.70;;;41.73;;
49193;SDS011;35029;50.804;12.866;2024-01-11T08:56:26;78.20;;;41.40;;
49193;SDS011;35029;50.804;12.866;2024-01-11T08:58:53;91.63;;;46.87;;
49193;SDS011;35029;50.804;12.866;2024-01-11T09:01:19;90.27;;;45.00;;
49193;SDS011;35029;50.804;12.866;2024-01-11T09:03:45;85.03;;;42.87;;
49193;SDS011;35029;50.804;12.866;2024-01-11T09:06:13;81.00;;;43.77;;
49193;SDS011;35029;50.804;12.866;2024-01-11T09:08:39;79.33;;;42.67;;
49193;SDS011;35029;50.804;12.866;2024-01-11T09:11:06;85.70;;;40.87;;
49193;SDS011;35029;50.804;12.866;2024-01-11T09:13:31;65.73;;;36.93;;
49193;SDS011;35029;50.804;12.866;2024-01-11T09:15:57;73.87;;;39.47;;
49193;SDS011;35029;50.804;12.866;2024-01-11T09:18:23;87.97;;;43.37;;
49193;SDS011;35029;50.804;12.866;2024-01-11T09:20:49;71.73;;;38.73;;
49193;SDS011;35029;50.804;12.866;2024-01-11T09:23:14;76.33;;;38.13;;
49193;SDS011;35029;50.804;12.866;2024-01-11T09:25:41;69.03;;;36.23;;
49193;SDS011;35029;50.804;12.866;2024-01-11T09:28:06;68.43;;;36.87;;
49193;SDS011;35029;50.804;12.866;2024-01-11T09:30:34;69.90;;;37.60;;
49193;SDS011;35029;50.804;12.866;2024-01-11T09:32:59;84.57;;;42.47;;
49193;SDS011;35029;50.804;12.866;2024-01-11T09:35:26;76.70;;;41.93;;
49193;SDS011;35029;50.804;12.866;2024-01-11T09:37:52;83.23;;;44.00;;
49193;SDS011;35029;50.804;12.866;2024-01-11T09:40:18;75.23;;;42.03;;
49193;SDS011;35029;50.804;12.866;2024-01-11T09:42:44;80.00;;;40.27;;
49193;SDS011;35029;50.804;12.866;2024-01-11T09:45:12;83.73;;;43.90;;
49193;SDS011;35029;50.804;12.866;2024-01-11T09:47:39;84.80;;;43.40;;
49193;SDS011;35029;50.804;12.866;2024-01-11T09:50:08;82.20;;;43.73;;
49193;SDS011;35029;50.804;12.866;2024-01-11T09:52:34;84.63;;;45.60;;
49193;SDS011;35029;50.804;12.866;2024-01-11T09:54:59;90.20;;;46.63;;
49193;SDS011;35029;50.804;12.866;2024-01-11T09:57:29;99.93;;;49.03;;
49193;SDS011;35029;50.804;12.866;2024-01-11T09:59:56;93.30;;;49.40;;
49193;SDS011;35029;50.804;12.866;2024-01-11T10:02:23;88.47;;;48.07;;
49193;SDS011;35029;50.804;12.866;2024-01-11T10:04:52;90.13;;;47.50;;
49193;SDS011;35029;50.804;12.866;2024-01-11T10:07:19;88.57;;;45.67;;
49193;SDS011;35029;50.804;12.866;2024-01-11T10:09:47;90.13;;;44.77;;
49193;SDS011;35029;50.804;12.866;2024-01-11T10:12:13;81.80;;;43.73;;
49193;SDS011;35029;50.804;12.866;2024-01-11T10:14:39;90.63;;;45.90;;
49193;SDS011;35029;50.804;12.866;2024-01-11T10:17:06;82.50;;;44.37;;
49193;SDS011;35029;50.804;12.866;2024-01-11T10:19:32;87.07;;;44.03;;
49193;SDS011;35029;50.804;12.866;2024-01-11T10:21:57;88.00;;;45.87;;
49193;SDS011;35029;50.804;12.866;2024-01-11T10:24:26;72.97;;;39.77;;
49193;SDS011;35029;50.804;12.866;2024-01-11T10:26:57;90.13;;;47.93;;
49193;SDS011;35029;50.804;12.866;2024-01-11T10:29:32;92.97;;;49.77;;
49193;SDS011;35029;50.804;12.866;2024-01-11T10:32:03;90.67;;;49.43;;
49193;SDS011;35029;50.804;12.866;2024-01-11T10:34:29;92.43;;;48.83;;
49193;SDS011;35029;50.804;12.866;2024-01-11T10:36:55;89.70;;;48.90;;
49193;SDS011;35029;50.804;12.866;2024-01-11T10:39:24;97.33;;;51.20;;
49193;SDS011;35029;50.804;12.866;2024-01-11T10:41:52;93.90;;;52.13;;
49193;SDS011;35029;50.804;12.866;2024-01-11T10:44:29;93.67;;;51.63;;
49193;SDS011;35029;50.804;12.866;2024-01-11T10:46:59;95.60;;;52.63;;
49193;SDS011;35029;50.804;12.866;2024-01-11T10:49:27;88.67;;;49.80;;
49193;SDS011;35029;50.804;12.866;2024-01-11T10:54:33;98.27;;;50.93;;
49193;SDS011;35029;50.804;12.866;2024-01-11T10:56:59;92.70;;;52.63;;
49193;SDS011;35029;50.804;12.866;2024-01-11T10:59:28;95.90;;;53.63;;
49193;SDS011;35029;50.804;12.866;2024-01-11T11:01:57;87.50;;;50.10;;
49193;SDS011;35029;50.804;12.866;2024-01-11T11:04:24;89.50;;;49.50;;
49193;SDS011;35029;50.804;12.866;2024-01-11T11:06:50;86.67;;;47.27;;
49193;SDS011;35029;50.804;12.866;2024-01-11T11:09:20;85.33;;;46.00;;
49193;SDS011;35029;50.804;12.866;2024-01-11T11:11:46;83.67;;;47.00;;
49193;SDS011;35029;50.804;12.866;2024-01-11T11:14:15;89.07;;;50.80;;
49193;SDS011;35029;50.804;12.866;2024-01-11T11:16:42;100.77;;;51.13;;
49193;SDS011;35029;50.804;12.866;2024-01-11T11:19:10;93.57;;;52.63;;
49193;SDS011;35029;50.804;12.866;2024-01-11T11:21:43;93.87;;;51.70;;
49193;SDS011;35029;50.804;12.866;2024-01-11T11:24:12;97.83;;;54.60;;
49193;SDS011;35029;50.804;12.866;2024-01-11T11:26:38;91.13;;;52.00;;
49193;SDS011;35029;50.804;12.866;2024-01-11T11:29:04;93.73;;;52.50;;
49193;SDS011;35029;50.804;12.866;2024-01-11T11:31:39;100.43;;;55.60;;
49193;SDS011;35029;50.804;12.866;2024-01-11T11:34:10;90.73;;;51.03;;
49193;SDS011;35029;50.804;12.866;2024-01-11T11:36:39;99.17;;;55.37;;
49193;SDS011;35029;50.804;12.866;2024-01-11T11:39:09;93.07;;;49.57;;
49193;SDS011;35029;50.804;12.866;2024-01-11T11:41:39;94.03;;;54.50;;
49193;SDS011;35029;50.804;12.866;2024-01-11T11:44:05;97.47;;;51.53;;
49193;SDS011;35029;50.804;12.866;2024-01-11T11:46:31;100.27;;;51.47;;
49193;SDS011;35029;50.804;12.866;2024-01-11T11:48:58;91.63;;;50.33;;
49193;SDS011;35029;50.804;12.866;2024-01-11T11:51:24;102.77;;;52.13;;
49193;SDS011;35029;50.804;12.866;2024-01-11T11:53:51;93.13;;;52.90;;
49193;SDS011;35029;50.804;12.866;2024-01-11T11:56:18;93.63;;;50.27;;
49193;SDS011;35029;50.804;12.866;2024-01-11T11:58:45;98.10;;;52.27;;
49193;SDS011;35029;50.804;12.866;2024-01-11T12:01:13;100.37;;;52.60;;
49193;SDS011;35029;50.804;12.866;2024-01-11T12:03:43;95.33;;;52.43;;
49193;SDS011;35029;50.804;12.866;2024-01-11T12:06:19;92.13;;;51.03;;
49193;SDS011;35029;50.804;12.866;2024-01-11T12:08:46;101.87;;;54.63;;
49193;SDS011;35029;50.804;12.866;2024-01-11T12:11:13;104.70;;;56.03;;
49193;SDS011;35029;50.804;12.866;2024-01-11T12:13:40;100.57;;;54.53;;
49193;SDS011;35029;50.804;12.866;2024-01-11T12:16:06;99.13;;;55.40;;
49193;SDS011;35029;50.804;12.866;2024-01-11T12:18:32;98.10;;;54.97;;
49193;SDS011;35029;50.804;12.866;2024-01-11T12:20:58;91.57;;;51.87;;
49193;SDS011;35029;50.804;12.866;2024-01-11T12:23:23;89.60;;;49.97;;
49193;SDS011;35029;50.804;12.866;2024-01-11T12:25:49;89.80;;;49.60;;
49193;SDS011;35029;50.804;12.866;2024-01-11T12:28:15;94.77;;;50.93;;
49193;SDS011;35029;50.804;12.866;2024-01-11T12:30:42;86.43;;;48.20;;
49193;SDS011;35029;50.804;12.866;2024-01-11T12:33:08;86.20;;;46.53;;
49193;SDS011;35029;50.804;12.866;2024-01-11T12:35:34;84.97;;;47.43;;
49193;SDS011;35029;50.804;12.866;2024-01-11T12:38:01;82.50;;;45.07;;
49193;SDS011;35029;50.804;12.866;2024-01-11T12:40:32;90.97;;;47.87;;
49193;SDS011;35029;50.804;12.866;2024-01-11T12:42:59;86.30;;;47.27;;
49193;SDS011;35029;50.804;12.866;2024-01-11T12:45:26;87.60;;;49.50;;
49193;SDS011;35029;50.804;12.866;2024-01-11T12:47:52;89.40;;;45.97;;
49193;SDS011;35029;50.804;12.866;2024-01-11T12:50:20;84.80;;;48.07;;
49193;SDS011;35029;50.804;12.866;2024-01-11T12:52:47;90.37;;;50.97;;
49193;SDS011;35029;50.804;12.866;2024-01-11T12:55:32;88.47;;;50.77;;
49193;SDS011;35029;50.804;12.866;2024-01-11T12:58:06;89.93;;;50.03;;
49193;SDS011;35029;50.804;12.866;2024-01-11T13:00:32;93.27;;;51.23;;
49193;SDS011;35029;50.804;12.866;2024-01-11T13:02:58;95.03;;;51.97;;
49193;SDS011;35029;50.804;12.866;2024-01-11T13:05:24;90.43;;;50.03;;
49193;SDS011;35029;50.804;12.866;2024-01-11T13:07:50;85.00;;;47.60;;
49193;SDS011;35029;50.804;12.866;2024-01-11T13:10:16;91.47;;;49.77;;
49193;SDS011;35029;50.804;12.866;2024-01-11T13:12:42;91.50;;;47.20;;
49193;SDS011;35029;50.804;12.866;2024-01-11T13:15:08;80.37;;;44.53;;
49193;SDS011;35029;50.804;12.866;2024-01-11T13:17:33;82.90;;;45.17;;
49193;SDS011;35029;50.804;12.866;2024-01-11T13:19:59;82.37;;;43.73;;
49193;SDS011;35029;50.804;12.866;2024-01-11T13:22:26;84.83;;;46.10;;
49193;SDS011;35029;50.804;12.866;2024-01-11T13:24:52;77.97;;;43.87;;
49193;SDS011;35029;50.804;12.866;2024-01-11T13:27:19;76.83;;;45.00;;
49193;SDS011;35029;50.804;12.866;2024-01-11T13:29:45;80.23;;;43.20;;
49193;SDS011;35029;50.804;12.866;2024-01-11T13:32:11;77.63;;;42.63;;
49193;SDS011;35029;50.804;12.866;2024-01-11T13:34:37;75.13;;;41.13;;
49193;SDS011;35029;50.804;12.866;2024-01-11T13:37:03;71.57;;;41.27;;
49193;SDS011;35029;50.804;12.866;2024-01-11T13:39:29;73.20;;;43.27;;
49193;SDS011;35029;50.804;12.866;2024-01-11T13:41:54;72.67;;;40.67;;
49193;SDS011;35029;50.804;12.866;2024-01-11T13:44:20;70.07;;;37.73;;
49193;SDS011;35029;50.804;12.866;2024-01-11T13:46:45;69.40;;;40.60;;
49193;SDS011;35029;50.804;12.866;2024-01-11T13:49:11;69.33;;;39.50;;
49193;SDS011;35029;50.804;12.866;2024-01-11T13:51:36;70.83;;;38.07;;
49193;SDS011;35029;50.804;12.866;2024-01-11T13:54:03;69.97;;;40.10;;
49193;SDS011;35029;50.804;12.866;2024-01-11T13:56:28;65.87;;;36.47;;
49193;SDS011;35029;50.804;12.866;2024-01-11T13:58:54;72.73;;;39.70;;
49193;SDS011;35029;50.804;12.866;2024-01-11T14:01:20;69.83;;;39.37;;
49193;SDS011;35029;50.804;12.866;2024-01-11T14:03:45;70.23;;;38.67;;
49193;SDS011;35029;50.804;12.866;2024-01-11T14:06:11;71.67;;;38.67;;